createdAt,value
2019-01-25T00:01:32.738Z,86.87
2019-01-25T00:04:03.368Z,84.60
2019-01-25T00:06:33.785Z,85.37
2019-01-25T00:09:06.392Z,86.13
2019-01-25T00:11:36.950Z,79.17
2019-01-25T00:14:07.518Z,79.43
2019-01-25T00:16:38.064Z,82.23
2019-01-25T00:19:08.397Z,80.93
2019-01-25T00:21:39.134Z,87.77
2019-01-25T00:24:12.097Z,84.33
2019-01-25T00:26:42.538Z,90.27
2019-01-25T00:29:16.983Z,86.17
2019-01-25T00:31:47.630Z,84.10
2019-01-25T00:34:18.060Z,90.33
2019-01-25T00:36:52.701Z,82.87
2019-01-25T00:39:23.470Z,82.40
2019-01-25T00:41:54.023Z,81.20
2019-01-25T00:44:24.414Z,87.33
2019-01-25T00:46:54.850Z,82.47
2019-01-25T00:49:26.191Z,80.93
2019-01-25T00:51:59.345Z,86.60
2019-01-25T00:54:29.749Z,81.90
2019-01-25T00:57:00.130Z,82.53
2019-01-25T00:59:30.668Z,83.03
2019-01-25T01:02:01.100Z,85.90
2019-01-25T01:04:31.927Z,85.70
2019-01-25T01:07:06.694Z,86.77
2019-01-25T01:09:41.166Z,81.13
2019-01-25T01:12:13.621Z,84.20
2019-01-25T01:14:44.327Z,92.63
2019-01-25T01:17:14.842Z,83.47
2019-01-25T01:19:45.491Z,82.90
2019-01-25T01:22:16.285Z,79.60
2019-01-25T01:24:47.664Z,80.97
2019-01-25T01:27:18.112Z,83.30
2019-01-25T01:29:48.852Z,84.80
2019-01-25T01:32:19.476Z,82.63
2019-01-25T01:34:58.427Z,85.07
2019-01-25T01:37:28.849Z,80.73
2019-01-25T01:39:59.287Z,90.40
2019-01-25T01:42:29.746Z,79.90
2019-01-25T01:45:00.267Z,86.03
2019-01-25T01:47:30.730Z,85.80
2019-01-25T01:50:01.115Z,87.23
2019-01-25T01:52:31.556Z,81.67
2019-01-25T01:55:01.898Z,81.07
2019-01-25T01:57:32.315Z,84.03
2019-01-25T02:00:02.991Z,88.83
2019-01-25T02:02:33.457Z,88.40
2019-01-25T02:05:03.856Z,84.37
2019-01-25T02:07:34.269Z,81.33
2019-01-25T02:10:05.766Z,80.83
2019-01-25T02:12:36.311Z,82.63
2019-01-25T02:15:08.078Z,79.40
2019-01-25T02:17:38.715Z,82.33
2019-01-25T02:20:11.323Z,89.60
2019-01-25T02:22:42.837Z,85.23
2019-01-25T02:25:13.284Z,82.77
2019-01-25T02:27:46.790Z,84.00
2019-01-25T02:30:21.456Z,86.87
2019-01-25T02:32:52.026Z,85.20
2019-01-25T02:35:22.546Z,77.70
2019-01-25T02:37:52.981Z,74.07
2019-01-25T02:40:25.173Z,78.43
2019-01-25T02:42:55.934Z,78.93
2019-01-25T02:45:26.593Z,81.53
2019-01-25T02:47:57.109Z,77.40
2019-01-25T02:50:27.466Z,80.40
2019-01-25T02:53:03.675Z,79.40
2019-01-25T02:55:30.631Z,79.40
2019-01-25T02:58:01.128Z,82.63
2019-01-25T03:00:31.521Z,90.73
2019-01-25T03:03:01.946Z,85.83
2019-01-25T03:05:34.627Z,84.10
2019-01-25T03:08:05.056Z,84.97
2019-01-25T03:10:35.460Z,81.13
2019-01-25T03:13:06.049Z,87.10
2019-01-25T03:15:36.419Z,90.30
2019-01-25T03:18:09.044Z,92.10
2019-01-25T03:20:39.773Z,98.47
2019-01-25T03:23:10.134Z,102.23
2019-01-25T03:25:40.809Z,86.37
2019-01-25T03:28:11.191Z,94.70
2019-01-25T03:30:41.608Z,109.27
2019-01-25T03:33:12.000Z,100.93
2019-01-25T03:35:44.516Z,101.17
2019-01-25T03:38:28.279Z,100.30
2019-01-25T03:40:59.238Z,116.30
2019-01-25T03:43:31.276Z,116.27
2019-01-25T03:46:02.148Z,118.27
2019-01-25T03:48:32.523Z,110.33
2019-01-25T03:51:02.966Z,139.03
2019-01-25T03:53:33.589Z,142.77
2019-01-25T03:56:04.322Z,140.60
2019-01-25T03:58:34.614Z,148.60
2019-01-25T04:01:05.028Z,153.30
2019-01-25T04:03:35.540Z,132.60
2019-01-25T04:06:23.485Z,131.30
2019-01-25T04:08:56.267Z,130.20
2019-01-25T04:11:26.774Z,126.43
2019-01-25T04:13:57.166Z,131.50
2019-01-25T04:16:27.619Z,141.87
2019-01-25T04:18:58.215Z,145.40
2019-01-25T04:21:28.665Z,139.97
2019-01-25T04:23:59.182Z,133.73
2019-01-25T04:26:29.575Z,138.80
2019-01-25T04:29:00.402Z,152.00
2019-01-25T04:31:30.800Z,140.50
2019-01-25T04:34:02.324Z,138.73
2019-01-25T04:36:32.768Z,143.17
2019-01-25T04:39:04.113Z,136.70
2019-01-25T04:41:34.674Z,148.43
2019-01-25T04:44:05.683Z,125.63
2019-01-25T04:46:38.117Z,127.60
2019-01-25T04:49:10.788Z,127.90
2019-01-25T04:51:41.216Z,117.13
2019-01-25T04:54:11.697Z,130.13
2019-01-25T04:56:42.549Z,135.93
2019-01-25T04:59:13.223Z,136.83
2019-01-25T05:01:46.510Z,137.20
2019-01-25T05:04:17.044Z,129.77
2019-01-25T05:06:47.486Z,117.03
2019-01-25T05:09:17.819Z,117.17
2019-01-25T05:11:49.008Z,113.50
2019-01-25T05:14:19.560Z,120.27
2019-01-25T05:16:50.751Z,114.23
2019-01-25T05:19:21.183Z,123.17
2019-01-25T05:21:51.810Z,109.87
2019-01-25T05:24:22.521Z,121.03
2019-01-25T05:26:58.017Z,121.90
2019-01-25T05:29:50.068Z,117.13
2019-01-25T05:32:21.142Z,110.80
2019-01-25T05:34:51.552Z,111.73
2019-01-25T05:37:23.408Z,119.47
2019-01-25T05:39:53.850Z,121.37
2019-01-25T05:42:24.200Z,120.17
2019-01-25T05:44:57.421Z,119.10
2019-01-25T05:47:28.294Z,118.50
2019-01-25T05:49:58.756Z,115.30
2019-01-25T05:52:29.370Z,118.43
2019-01-25T05:54:59.753Z,121.77
2019-01-25T05:57:30.114Z,118.93
2019-01-25T06:00:03.548Z,113.43
2019-01-25T06:02:34.237Z,116.33
2019-01-25T06:05:05.046Z,108.13
2019-01-25T06:07:35.443Z,113.77
2019-01-25T06:10:06.699Z,113.27
2019-01-25T06:12:37.083Z,112.17
2019-01-25T06:15:07.746Z,109.27
2019-01-25T06:17:38.201Z,109.20
2019-01-25T06:20:08.945Z,104.23
2019-01-25T06:22:40.953Z,115.90
2019-01-25T06:25:11.987Z,112.90
2019-01-25T06:27:44.794Z,111.07
2019-01-25T06:30:16.849Z,165.70
2019-01-25T06:32:47.399Z,113.00
2019-01-25T06:35:18.602Z,117.60
2019-01-25T06:37:51.901Z,119.17
2019-01-25T06:40:22.374Z,100.07
2019-01-25T06:42:52.709Z,110.07
2019-01-25T06:45:26.302Z,114.73
2019-01-25T06:47:56.741Z,111.93
2019-01-25T06:50:27.405Z,105.83
2019-01-25T06:52:57.933Z,105.53
2019-01-25T06:55:28.323Z,113.67
2019-01-25T06:58:09.304Z,94.70
2019-01-25T07:00:44.119Z,113.97
2019-01-25T07:03:14.676Z,106.67
2019-01-25T07:05:48.131Z,111.03
2019-01-25T07:08:19.440Z,109.93
2019-01-25T07:10:51.042Z,107.53
2019-01-25T07:13:21.497Z,102.40
2019-01-25T07:15:55.128Z,111.53
2019-01-25T07:18:25.549Z,110.17
2019-01-25T07:20:57.343Z,104.40
2019-01-25T07:23:29.616Z,103.93
2019-01-25T07:26:00.007Z,106.30
2019-01-25T07:28:30.769Z,116.10
2019-01-25T07:31:01.320Z,106.07
2019-01-25T07:33:32.087Z,118.03
2019-01-25T07:36:02.396Z,110.20
2019-01-25T07:38:32.921Z,116.07
2019-01-25T07:41:06.279Z,115.73
2019-01-25T07:43:36.746Z,111.03
2019-01-25T07:46:07.566Z,118.47
2019-01-25T07:48:37.948Z,113.77
2019-01-25T07:51:08.408Z,118.27
2019-01-25T07:53:38.867Z,115.33
2019-01-25T07:56:09.396Z,111.87
2019-01-25T07:58:39.913Z,123.57
2019-01-25T08:01:14.689Z,124.50
2019-01-25T08:03:45.168Z,120.57
2019-01-25T08:06:18.708Z,115.43
2019-01-25T08:08:49.275Z,121.47
2019-01-25T08:11:21.834Z,116.33
2019-01-25T08:13:52.207Z,122.60
2019-01-25T08:16:22.729Z,114.37
2019-01-25T08:18:53.198Z,120.90
2019-01-25T08:21:23.809Z,116.17
2019-01-25T08:23:54.167Z,122.63
2019-01-25T08:26:25.979Z,118.77
2019-01-25T08:28:56.470Z,114.77
2019-01-25T08:31:27.042Z,116.27
2019-01-25T08:33:57.389Z,109.40
2019-01-25T08:36:27.839Z,129.53
2019-01-25T08:38:58.160Z,122.87
2019-01-25T08:41:28.624Z,107.40
2019-01-25T08:44:01.827Z,115.87
2019-01-25T08:46:32.555Z,115.97
2019-01-25T08:49:03.116Z,107.30
2019-01-25T08:51:33.533Z,106.93
2019-01-25T08:54:04.117Z,116.27
2019-01-25T08:56:34.788Z,115.67
2019-01-25T08:59:05.479Z,111.80
2019-01-25T09:01:36.275Z,107.73
2019-01-25T09:04:06.714Z,115.93
2019-01-25T09:06:36.968Z,106.30
2019-01-25T09:09:10.405Z,111.07
2019-01-25T09:11:43.197Z,110.20
2019-01-25T09:14:13.545Z,109.00
2019-01-25T09:16:43.928Z,103.93
2019-01-25T09:19:14.269Z,106.20
2019-01-25T09:21:45.158Z,114.83
2019-01-25T09:24:16.684Z,103.17
2019-01-25T09:26:47.568Z,114.43
2019-01-25T09:29:18.193Z,112.30
2019-01-25T09:31:49.396Z,105.57
2019-01-25T09:34:20.465Z,103.00
2019-01-25T09:36:52.697Z,112.47
2019-01-25T09:39:23.457Z,104.93
2019-01-25T09:41:53.851Z,112.63
2019-01-25T09:44:25.156Z,108.33
2019-01-25T09:46:55.568Z,116.23
2019-01-25T09:49:28.982Z,118.43
2019-01-25T09:52:02.330Z,113.43
2019-01-25T09:54:32.737Z,117.77
2019-01-25T09:57:05.033Z,119.80
2019-01-25T09:59:35.514Z,129.80
2019-01-25T10:02:05.923Z,116.30
2019-01-25T10:04:36.420Z,127.37
2019-01-25T10:07:06.873Z,132.93
2019-01-25T10:09:37.528Z,126.60
2019-01-25T10:12:07.943Z,130.27
2019-01-25T10:14:38.418Z,137.53
2019-01-25T10:17:08.900Z,131.60
2019-01-25T10:19:39.235Z,127.60
2019-01-25T10:22:09.703Z,116.67
2019-01-25T10:24:40.093Z,120.17
2019-01-25T10:27:10.413Z,120.03
2019-01-25T10:29:40.805Z,105.77
2019-01-25T10:32:11.329Z,108.00
2019-01-25T10:34:41.775Z,101.40
2019-01-25T10:37:12.574Z,97.40
2019-01-25T10:39:43.475Z,94.37
2019-01-25T10:42:14.233Z,96.33
2019-01-25T10:44:44.637Z,101.53
2019-01-25T10:47:14.962Z,110.73
2019-01-25T10:49:45.349Z,100.43
2019-01-25T10:52:16.142Z,104.67
2019-01-25T10:54:46.576Z,97.07
2019-01-25T10:57:17.091Z,100.83
2019-01-25T10:59:47.802Z,96.60
2019-01-25T11:02:18.207Z,89.43
2019-01-25T11:04:50.193Z,94.90
2019-01-25T11:07:22.798Z,89.60
2019-01-25T11:09:53.198Z,95.50
2019-01-25T11:12:25.130Z,60.40
2019-01-25T11:14:55.650Z,53.57
2019-01-25T11:17:26.082Z,51.37
2019-01-25T11:19:59.255Z,45.97
2019-01-25T11:22:29.990Z,45.33
2019-01-25T11:25:00.627Z,39.97
2019-01-25T11:27:32.208Z,41.73
2019-01-25T11:30:02.644Z,40.20
2019-01-25T11:32:32.996Z,38.63
2019-01-25T11:35:04.841Z,37.87
2019-01-25T11:37:35.240Z,36.90
2019-01-25T11:40:10.208Z,32.20
2019-01-25T11:42:40.565Z,32.57
2019-01-25T11:45:11.465Z,31.47
2019-01-25T11:47:44.174Z,27.93
2019-01-25T11:50:15.675Z,29.13
2019-01-25T11:52:46.199Z,25.63
2019-01-25T11:55:16.981Z,24.27
2019-01-25T11:57:47.457Z,26.10
2019-01-25T12:00:20.631Z,24.30
2019-01-25T12:02:51.335Z,23.20
2019-01-25T12:05:22.872Z,29.37
2019-01-25T12:07:54.496Z,25.20
2019-01-25T12:10:29.496Z,23.50
2019-01-25T12:12:59.856Z,24.03
2019-01-25T12:15:30.305Z,27.90
2019-01-25T12:18:00.733Z,24.93
2019-01-25T12:20:31.777Z,23.33
2019-01-25T12:23:02.895Z,23.60
2019-01-25T12:25:33.240Z,24.90
2019-01-25T12:28:05.274Z,27.83
2019-01-25T12:30:38.372Z,25.07
2019-01-25T12:33:09.902Z,22.37
2019-01-25T12:35:42.338Z,22.40
2019-01-25T12:38:12.768Z,23.63
2019-01-25T12:40:43.219Z,23.17
2019-01-25T12:43:13.630Z,24.03
2019-01-25T12:45:44.021Z,25.47
2019-01-25T12:48:14.455Z,24.30
2019-01-25T12:50:49.182Z,19.77
2019-01-25T12:53:20.983Z,22.20
2019-01-25T12:55:51.472Z,23.10
2019-01-25T12:58:21.857Z,25.67
2019-01-25T13:00:54.191Z,22.17
2019-01-25T13:03:26.839Z,20.60
2019-01-25T13:05:57.801Z,23.40
2019-01-25T13:08:30.550Z,21.67
2019-01-25T13:11:03.634Z,24.07
2019-01-25T13:13:36.299Z,18.60
2019-01-25T13:16:06.677Z,17.87
2019-01-25T13:18:37.231Z,18.97
2019-01-25T13:21:07.690Z,21.10
2019-01-25T13:23:38.961Z,19.70
2019-01-25T13:26:09.481Z,18.70
2019-01-25T13:28:41.709Z,20.83
2019-01-25T13:31:11.981Z,17.23
2019-01-25T13:33:42.376Z,19.90
2019-01-25T13:36:14.224Z,15.43
2019-01-25T13:38:44.548Z,20.60
2019-01-25T13:41:14.895Z,18.07
2019-01-25T13:43:45.238Z,17.80
2019-01-25T13:46:15.646Z,16.60
2019-01-25T13:48:46.571Z,19.67
2019-01-25T13:51:17.049Z,25.13
2019-01-25T13:53:47.383Z,19.57
2019-01-25T13:56:17.833Z,15.20
2019-01-25T13:58:49.934Z,18.63
2019-01-25T14:01:20.650Z,25.50
2019-01-25T14:03:51.159Z,17.17
2019-01-25T14:06:21.623Z,21.37
2019-01-25T14:08:53.616Z,18.47
2019-01-25T14:11:24.028Z,17.73
2019-01-25T14:13:54.444Z,17.23
2019-01-25T14:16:24.784Z,16.67
2019-01-25T14:18:55.304Z,17.57
2019-01-25T14:21:25.587Z,18.30
2019-01-25T14:23:56.003Z,17.80
2019-01-25T14:26:26.388Z,18.13
2019-01-25T14:28:56.833Z,16.70
2019-01-25T14:31:27.200Z,17.10
2019-01-25T14:33:57.569Z,15.97
2019-01-25T14:36:28.228Z,20.17
2019-01-25T14:38:58.578Z,19.40
2019-01-25T14:41:28.962Z,16.30
2019-01-25T14:43:59.318Z,14.13
2019-01-25T14:46:29.775Z,18.13
2019-01-25T14:49:00.335Z,14.13
2019-01-25T14:51:31.154Z,14.83
2019-01-25T14:54:01.549Z,16.50
2019-01-25T14:56:34.499Z,15.33
2019-01-25T14:59:05.069Z,17.50
2019-01-25T15:01:35.480Z,11.73
2019-01-25T15:04:05.976Z,17.30
2019-01-25T15:06:36.347Z,17.03
2019-01-25T15:09:09.821Z,17.17
2019-01-25T15:11:40.232Z,14.93
2019-01-25T15:14:10.752Z,14.40
2019-01-25T15:16:41.226Z,18.43
2019-01-25T15:19:11.711Z,19.87
2019-01-25T15:21:42.348Z,18.30
2019-01-25T15:24:14.510Z,15.43
2019-01-25T15:26:44.924Z,13.40
2019-01-25T15:29:16.109Z,17.37
2019-01-25T15:31:46.503Z,15.90
2019-01-25T15:34:17.020Z,15.93
2019-01-25T15:36:48.867Z,17.13
2019-01-25T15:39:19.497Z,18.43
2019-01-25T15:41:49.811Z,18.00
2019-01-25T15:44:20.250Z,14.67
2019-01-25T15:46:54.322Z,19.00
2019-01-25T15:49:24.800Z,15.00
2019-01-25T15:51:55.173Z,18.50
2019-01-25T15:54:26.557Z,17.33
2019-01-25T15:56:57.252Z,19.57
2019-01-25T15:59:27.711Z,19.90
2019-01-25T16:01:58.396Z,18.57
2019-01-25T16:04:34.792Z,18.30
2019-01-25T16:07:00.989Z,18.83
2019-01-25T16:09:31.432Z,16.17
2019-01-25T16:12:01.846Z,19.63
2019-01-25T16:14:32.303Z,16.33
2019-01-25T16:17:02.802Z,18.53
2019-01-25T16:19:33.256Z,18.33
2019-01-25T16:22:03.740Z,24.00
2019-01-25T16:24:34.199Z,20.17
2019-01-25T16:27:04.842Z,25.33
2019-01-25T16:29:35.360Z,23.73
2019-01-25T16:32:11.912Z,24.30
2019-01-25T16:34:42.293Z,24.30
2019-01-25T16:37:12.825Z,26.27
2019-01-25T16:39:45.478Z,26.67
2019-01-25T16:42:18.286Z,26.17
2019-01-25T16:44:48.960Z,30.53
2019-01-25T16:47:19.342Z,30.03
2019-01-25T16:49:49.720Z,29.43
2019-01-25T16:52:21.443Z,28.93
2019-01-25T16:54:51.844Z,31.43
2019-01-25T16:57:25.159Z,26.53
2019-01-25T16:59:55.621Z,31.73
2019-01-25T17:02:26.021Z,34.57
2019-01-25T17:04:56.468Z,34.63
2019-01-25T17:07:28.972Z,32.77
2019-01-25T17:10:02.443Z,32.13
2019-01-25T17:12:32.775Z,31.37
2019-01-25T17:15:03.403Z,39.67
2019-01-25T17:17:33.826Z,32.57
2019-01-25T17:20:04.742Z,34.00
2019-01-25T17:22:37.548Z,33.03
2019-01-25T17:25:09.586Z,30.40
2019-01-25T17:27:40.220Z,33.03
2019-01-25T17:30:14.978Z,36.13
2019-01-25T17:32:45.476Z,38.17
2019-01-25T17:35:15.892Z,33.70
2019-01-25T17:37:46.330Z,35.87
2019-01-25T17:40:17.848Z,37.40
2019-01-25T17:42:48.264Z,32.57
2019-01-25T17:45:18.674Z,28.47
2019-01-25T17:47:49.011Z,29.33
2019-01-25T17:50:19.676Z,32.87
2019-01-25T17:52:50.045Z,36.13
2019-01-25T17:55:20.521Z,32.17
2019-01-25T17:57:50.960Z,36.63
2019-01-25T18:00:37.390Z,35.73
2019-01-25T18:03:08.632Z,33.60
2019-01-25T18:05:41.600Z,31.37
2019-01-25T18:08:12.335Z,32.93
2019-01-25T18:10:42.848Z,30.90
2019-01-25T18:13:25.810Z,32.93
2019-01-25T18:15:56.507Z,38.57
2019-01-25T18:18:27.014Z,39.90
2019-01-25T18:20:57.438Z,42.50
2019-01-25T18:23:30.662Z,39.43
2019-01-25T18:26:12.779Z,38.10
2019-01-25T18:28:56.613Z,39.83
2019-01-25T18:31:30.614Z,40.77
2019-01-25T18:34:02.271Z,38.10
2019-01-25T18:36:33.815Z,38.80
2019-01-25T18:39:08.353Z,30.87
2019-01-25T18:41:42.324Z,38.17
2019-01-25T18:44:12.796Z,39.80
2019-01-25T18:46:43.180Z,44.10
2019-01-25T18:49:13.701Z,37.20
2019-01-25T18:51:44.338Z,31.80
2019-01-25T18:54:14.816Z,36.30
2019-01-25T18:56:47.851Z,37.20
2019-01-25T18:59:18.724Z,35.03
2019-01-25T19:01:49.898Z,30.47
2019-01-25T19:04:21.118Z,31.43
2019-01-25T19:06:52.566Z,32.73
2019-01-25T19:09:23.400Z,32.53
2019-01-25T19:11:53.953Z,31.83
2019-01-25T19:14:24.368Z,36.57
2019-01-25T19:16:54.838Z,32.53
2019-01-25T19:19:25.281Z,36.73
2019-01-25T19:21:56.126Z,36.03
2019-01-25T19:24:28.415Z,36.60
2019-01-25T19:27:01.461Z,38.47
2019-01-25T19:29:33.085Z,35.83
2019-01-25T19:32:06.479Z,33.73
2019-01-25T19:34:37.789Z,39.07
2019-01-25T19:37:09.141Z,40.43
2019-01-25T19:39:40.354Z,38.67
2019-01-25T19:42:11.776Z,38.40
2019-01-25T19:44:43.323Z,38.43
2019-01-25T19:47:17.846Z,37.30
2019-01-25T19:49:49.091Z,40.90
2019-01-25T19:52:20.519Z,41.90
2019-01-25T19:54:51.449Z,40.27
2019-01-25T19:57:22.879Z,47.43
2019-01-25T19:59:54.392Z,43.37
2019-01-25T20:02:25.824Z,42.10
2019-01-25T20:04:56.289Z,50.40
2019-01-25T20:07:27.772Z,48.03
2019-01-25T20:09:58.298Z,44.07
2019-01-25T20:12:30.861Z,46.37
2019-01-25T20:15:01.437Z,42.90
2019-01-25T20:17:32.375Z,49.33
2019-01-25T20:20:02.795Z,51.50
2019-01-25T20:22:35.064Z,49.07
2019-01-25T20:25:06.180Z,54.27
2019-01-25T20:27:37.608Z,55.80
2019-01-25T20:30:13.756Z,54.83
2019-01-25T20:32:44.258Z,53.17
2019-01-25T20:35:18.943Z,57.10
2019-01-25T20:37:51.203Z,55.53
2019-01-25T20:40:21.711Z,51.67
2019-01-25T20:42:52.160Z,51.33
2019-01-25T20:45:27.345Z,45.80
2019-01-25T20:47:57.750Z,52.83
2019-01-25T20:50:32.143Z,51.67
2019-01-25T20:53:03.021Z,51.47
2019-01-25T20:55:33.822Z,57.50
2019-01-25T20:58:04.649Z,54.53
2019-01-25T21:00:36.853Z,51.87
2019-01-25T21:03:10.576Z,47.20
2019-01-25T21:05:41.169Z,53.30
2019-01-25T21:08:11.729Z,47.00
2019-01-25T21:10:42.473Z,44.80
2019-01-25T21:13:13.664Z,47.13
2019-01-25T21:15:44.088Z,45.33
2019-01-25T21:18:14.515Z,45.37
2019-01-25T21:20:46.814Z,43.10
2019-01-25T21:23:17.289Z,46.97
2019-01-25T21:25:48.521Z,44.17
2019-01-25T21:28:19.230Z,41.50
2019-01-25T21:30:55.830Z,42.40
2019-01-25T21:33:28.055Z,47.17
2019-01-25T21:35:58.399Z,34.77
2019-01-25T21:38:31.803Z,41.23
2019-01-25T21:41:02.218Z,33.40
2019-01-25T21:43:32.962Z,32.03
2019-01-25T21:46:03.568Z,25.77
2019-01-25T21:48:34.424Z,29.03
2019-01-25T21:51:05.264Z,28.77
2019-01-25T21:53:35.797Z,31.90
2019-01-25T21:56:06.491Z,30.73
2019-01-25T21:58:37.111Z,28.90
2019-01-25T22:01:07.596Z,30.13
2019-01-25T22:03:37.989Z,29.90
2019-01-25T22:06:08.991Z,32.20
2019-01-25T22:08:39.605Z,27.37
2019-01-25T22:11:10.485Z,31.13
2019-01-25T22:13:41.079Z,35.57
2019-01-25T22:16:11.516Z,37.07
2019-01-25T22:18:42.025Z,35.33
2019-01-25T22:21:12.498Z,33.23
2019-01-25T22:23:46.494Z,30.97
2019-01-25T22:26:17.950Z,36.90
2019-01-25T22:28:52.542Z,31.67
2019-01-25T22:31:31.893Z,32.33
2019-01-25T22:34:17.798Z,33.93
2019-01-25T22:37:13.876Z,33.60
2019-01-25T22:39:45.044Z,31.97
2019-01-25T22:44:51.442Z,34.57
2019-01-25T22:47:21.801Z,38.33
2019-01-25T22:49:52.285Z,36.43
2019-01-25T22:52:22.896Z,34.57
2019-01-25T22:54:53.268Z,37.95
2019-01-25T22:57:23.751Z,36.73
2019-01-25T22:59:59.264Z,36.40
2019-01-25T23:02:29.707Z,37.50
2019-01-25T23:05:22.076Z,36.23
2019-01-25T23:07:58.506Z,38.57
2019-01-25T23:10:28.995Z,38.80
2019-01-25T23:13:02.429Z,36.47
2019-01-25T23:15:33.126Z,39.70
2019-01-25T23:18:07.777Z,40.93
2019-01-25T23:20:38.277Z,38.70
2019-01-25T23:23:08.775Z,39.50
2019-01-25T23:25:39.239Z,41.80
2019-01-25T23:28:09.693Z,38.63
2019-01-25T23:30:40.502Z,45.47
2019-01-25T23:33:11.440Z,39.00
2019-01-25T23:35:44.188Z,46.30
2019-01-25T23:38:14.602Z,40.37
2019-01-25T23:40:47.858Z,42.57
2019-01-25T23:43:18.263Z,44.77
2019-01-25T23:45:48.714Z,46.27
2019-01-25T23:48:19.392Z,50.60
2019-01-25T23:50:51.441Z,53.37
2019-01-25T23:53:22.005Z,49.13
2019-01-25T23:55:55.664Z,53.33
2019-01-25T23:58:27.886Z,54.73
